Time;durP1;ratioP1;P1;durP2;ratioP2;P2;SDS_P1;SDS_P2;PMS_P1;PMS_P2;Temp;Humidity;BMP_temperature;BMP_pressure;BME280_temperature;BME280_humidity;BME280_pressure;Samples;Min_cycle;Max_cycle;Signal;HPM_P1;HPM_P2
2022/07/18 00:01:35;;;;;;;0.00;0.00;;;;;;;;;;5031292;28;20025;-64
2022/07/18 00:04:00;;;;;;;0.00;0.00;;;;;;;;;;5031572;28;20508;-64
2022/07/18 00:06:25;;;;;;;0.00;0.00;;;;;;;;;;5032814;28;20025;-64
2022/07/18 00:08:50;;;;;;;0.00;0.00;;;;;;;;;;5031436;28;20041;-64
2022/07/18 00:11:16;;;;;;;0.00;0.00;;;;;;;;;;5031528;28;20025;-64
2022/07/18 00:13:41;;;;;;;0.00;0.00;;;;;;;;;;5032133;28;20029;-64
2022/07/18 00:16:06;;;;;;;3.05;2.95;;;;;;;;;;5033173;28;20031;-63
2022/07/18 00:18:31;;;;;;;0.00;0.00;;;;;;;;;;5033191;28;20038;-63
2022/07/18 00:20:57;;;;;;;0.00;0.00;;;;;;;;;;5032417;28;20444;-63
2022/07/18 00:23:22;;;;;;;0.00;0.00;;;;;;;;;;5032871;28;20431;-65
2022/07/18 00:25:47;;;;;;;0.00;0.00;;;;;;;;;;5030969;28;20382;-64
2022/07/18 00:28:12;;;;;;;0.00;0.00;;;;;;;;;;5033244;28;20096;-64
2022/07/18 00:30:38;;;;;;;0.00;0.00;;;;;;;;;;5031032;28;20025;-64
2022/07/18 00:33:03;;;;;;;0.00;0.00;;;;;;;;;;5031099;28;20029;-64
2022/07/18 00:35:29;;;;;;;0.00;0.00;;;;;;;;;;5028907;28;20044;-63
2022/07/18 00:37:57;;;;;;;0.00;0.00;;;;;;;;;;5031345;28;20095;-64
2022/07/18 00:40:25;;;;;;;0.00;0.00;;;;;;;;;;5032409;28;20486;-63
2022/07/18 00:42:52;;;;;;;0.00;0.00;;;;;;;;;;5031710;28;20040;-64
2022/07/18 00:45:18;;;;;;;0.00;0.00;;;;;;;;;;5030974;28;20439;-64
2022/07/18 00:47:43;;;;;;;0.00;0.00;;;;;;;;;;5031709;28;20045;-64
2022/07/18 00:50:09;;;;;;;0.00;0.00;;;;;;;;;;5032118;28;20390;-63
2022/07/18 00:52:37;;;;;;;0.00;0.00;;;;;;;;;;5031974;28;20060;-63
2022/07/18 00:55:06;;;;;;;0.60;0.60;;;;;;;;;;5032095;28;20133;-63
2022/07/18 00:57:31;;;;;;;0.00;0.00;;;;;;;;;;5032269;28;20441;-61
2022/07/18 01:02:55;;;;;;;0.00;0.00;;;;;;;;;;5029757;28;20119;-62
2022/07/18 01:05:20;;;;;;;0.00;0.00;;;;;;;;;;5030470;28;20022;-62
2022/07/18 01:07:45;;;;;;;0.00;0.00;;;;;;;;;;5031098;28;20018;-62
2022/07/18 01:10:13;;;;;;;0.00;0.00;;;;;;;;;;5030459;28;20032;-63
2022/07/18 01:12:39;;;;;;;0.17;0.17;;;;;;;;;;5031433;28;20025;-64
2022/07/18 01:15:07;;;;;;;0.00;0.00;;;;;;;;;;5032335;28;20374;-64
2022/07/18 01:17:32;;;;;;;0.00;0.00;;;;;;;;;;5031517;28;20535;-63
2022/07/18 01:19:57;;;;;;;2.05;2.05;;;;;;;;;;5015039;28;20096;-63
2022/07/18 01:22:22;;;;;;;0.00;0.00;;;;;;;;;;5030247;28;20033;-63
2022/07/18 01:24:48;;;;;;;0.00;0.00;;;;;;;;;;5031137;28;20021;-62
2022/07/18 01:27:17;;;;;;;0.35;0.35;;;;;;;;;;5031609;28;20102;-62
2022/07/18 01:29:43;;;;;;;0.20;0.20;;;;;;;;;;5030236;28;20025;-62
2022/07/18 01:32:09;;;;;;;0.00;0.00;;;;;;;;;;5030467;28;20075;-62
2022/07/18 01:34:34;;;;;;;0.10;0.10;;;;;;;;;;5029814;28;20420;-62
2022/07/18 01:37:00;;;;;;;0.00;0.00;;;;;;;;;;5032019;28;20425;-61
2022/07/18 01:39:25;;;;;;;0.00;0.00;;;;;;;;;;5030053;28;20033;-61
2022/07/18 01:42:01;;;;;;;0.00;0.00;;;;;;;;;;5030982;28;20079;-62
2022/07/18 01:44:27;;;;;;;0.00;0.00;;;;;;;;;;5029503;28;20025;-60
2022/07/18 01:46:52;;;;;;;0.00;0.00;;;;;;;;;;5029845;28;20387;-61
2022/07/18 01:49:18;;;;;;;0.00;0.00;;;;;;;;;;5028115;28;20071;-63
2022/07/18 01:51:44;;;;;;;0.00;0.00;;;;;;;;;;5030276;28;20017;-63
2022/07/18 01:54:10;;;;;;;0.00;0.00;;;;;;;;;;5028912;28;20013;-64
2022/07/18 01:56:35;;;;;;;0.00;0.00;;;;;;;;;;5031712;28;20022;-64
2022/07/18 01:59:01;;;;;;;0.00;0.00;;;;;;;;;;5030843;28;20060;-64
2022/07/18 02:01:26;;;;;;;7.68;0.35;;;;;;;;;;5029211;28;20547;-64
2022/07/18 02:03:51;;;;;;;0.00;0.00;;;;;;;;;;5029176;28;20041;-64
2022/07/18 02:06:17;;;;;;;0.00;0.00;;;;;;;;;;5028776;28;20116;-63
2022/07/18 02:08:42;;;;;;;0.00;0.00;;;;;;;;;;5031825;28;20049;-63
2022/07/18 02:11:07;;;;;;;0.00;0.00;;;;;;;;;;5029820;28;20144;-63
2022/07/18 02:13:32;;;;;;;0.00;0.00;;;;;;;;;;5030257;28;20053;-63
2022/07/18 02:15:57;;;;;;;0.00;0.00;;;;;;;;;;5030003;28;20108;-63
2022/07/18 02:18:23;;;;;;;0.00;0.00;;;;;;;;;;5028289;28;20466;-64
2022/07/18 02:20:48;;;;;;;0.00;0.00;;;;;;;;;;5028929;28;20033;-63
2022/07/18 02:23:13;;;;;;;0.00;0.00;;;;;;;;;;5013891;28;20048;-64
2022/07/18 02:25:38;;;;;;;0.00;0.00;;;;;;;;;;5029658;28;20025;-62
2022/07/18 02:28:04;;;;;;;0.00;0.00;;;;;;;;;;5014260;28;20033;-63
2022/07/18 02:30:29;;;;;;;0.00;0.00;;;;;;;;;;5029451;28;20021;-63
2022/07/18 02:32:55;;;;;;;0.00;0.00;;;;;;;;;;5027419;28;20037;-63
2022/07/18 02:35:20;;;;;;;0.00;0.00;;;;;;;;;;5029545;28;20022;-64
2022/07/18 02:37:45;;;;;;;0.00;0.00;;;;;;;;;;5029614;28;20033;-64
2022/07/18 02:40:11;;;;;;;0.00;0.00;;;;;;;;;;5027801;28;20075;-66
2022/07/18 02:42:36;;;;;;;0.00;0.00;;;;;;;;;;5012601;28;20151;-64
2022/07/18 02:45:02;;;;;;;0.00;0.00;;;;;;;;;;5030625;28;20045;-65
2022/07/18 02:47:28;;;;;;;0.00;0.00;;;;;;;;;;5028519;28;20026;-64
2022/07/18 02:49:53;;;;;;;0.00;0.00;;;;;;;;;;5030364;28;20138;-65
2022/07/18 02:52:18;;;;;;;0.00;0.00;;;;;;;;;;5027382;28;20037;-64
2022/07/18 02:54:43;;;;;;;0.00;0.00;;;;;;;;;;5031399;28;20030;-65
2022/07/18 02:57:08;;;;;;;0.00;0.00;;;;;;;;;;5028869;28;20096;-64
2022/07/18 02:59:34;;;;;;;0.00;0.00;;;;;;;;;;5012585;28;20443;-64
2022/07/18 03:01:59;;;;;;;0.00;0.00;;;;;;;;;;5027618;28;20033;-63
2022/07/18 03:04:24;;;;;;;0.00;0.00;;;;;;;;;;5028701;28;20030;-64
2022/07/18 03:06:50;;;;;;;0.00;0.00;;;;;;;;;;5029721;28;20024;-63
2022/07/18 03:09:16;;;;;;;8.77;8.02;;;;;;;;;;5029975;28;20044;-63
2022/07/18 03:11:41;;;;;;;0.00;0.00;;;;;;;;;;5028995;28;20040;-64
2022/07/18 03:14:06;;;;;;;0.00;0.00;;;;;;;;;;5028415;28;20029;-66
2022/07/18 03:16:31;;;;;;;0.00;0.00;;;;;;;;;;5026483;28;20025;-62
2022/07/18 03:18:57;;;;;;;0.00;0.00;;;;;;;;;;5027538;28;20108;-62
2022/07/18 03:21:22;;;;;;;0.00;0.00;;;;;;;;;;5012403;28;20496;-62
2022/07/18 03:23:48;;;;;;;0.00;0.00;;;;;;;;;;5031665;28;20362;-62
2022/07/18 03:26:13;;;;;;;0.00;0.00;;;;;;;;;;5032492;28;20661;-63
2022/07/18 03:28:38;;;;;;;0.00;0.00;;;;;;;;;;5031458;28;20386;-62
2022/07/18 03:31:04;;;;;;;0.00;0.00;;;;;;;;;;5032116;28;20048;-63
2022/07/18 03:33:30;;;;;;;0.00;0.00;;;;;;;;;;5030536;28;20025;-67
2022/07/18 03:35:55;;;;;;;0.00;0.00;;;;;;;;;;5032295;28;20018;-66
2022/07/18 03:38:20;;;;;;;0.00;0.00;;;;;;;;;;5031163;28;20383;-66
2022/07/18 03:40:45;;;;;;;0.00;0.00;;;;;;;;;;5033439;28;20079;-66
2022/07/18 03:43:10;;;;;;;0.00;0.00;;;;;;;;;;5031966;28;20021;-65
2022/07/18 03:45:36;;;;;;;0.00;0.00;;;;;;;;;;5034287;28;20025;-65
2022/07/18 03:48:01;;;;;;;0.00;0.00;;;;;;;;;;5031313;28;20029;-65
2022/07/18 03:50:27;;;;;;;0.00;0.00;;;;;;;;;;5033530;28;20021;-65
2022/07/18 03:52:52;;;;;;;0.00;0.00;;;;;;;;;;5032162;28;20028;-65
2022/07/18 03:55:18;;;;;;;0.00;0.00;;;;;;;;;;5032396;28;20403;-66
2022/07/18 03:57:43;;;;;;;0.00;0.00;;;;;;;;;;5031439;28;20087;-66
2022/07/18 04:00:09;;;;;;;0.00;0.00;;;;;;;;;;5029425;28;20021;-65
2022/07/18 04:02:37;;;;;;;0.00;0.00;;;;;;;;;;5032633;28;20108;-66
2022/07/18 04:05:03;;;;;;;0.00;0.00;;;;;;;;;;5031870;28;20013;-68
2022/07/18 04:07:28;;;;;;;0.00;0.00;;;;;;;;;;5031944;28;20068;-64
2022/07/18 04:09:53;;;;;;;0.00;0.00;;;;;;;;;;5037749;28;20044;-64
2022/07/18 04:12:18;;;;;;;0.00;0.00;;;;;;;;;;5033289;28;20104;-64
2022/07/18 04:14:44;;;;;;;0.10;0.10;;;;;;;;;;5031818;28;20044;-64
2022/07/18 04:17:09;;;;;;;0.00;0.00;;;;;;;;;;5036385;28;20028;-65
2022/07/18 04:19:34;;;;;;;0.00;0.00;;;;;;;;;;5049662;28;20363;-63
2022/07/18 04:21:59;;;;;;;0.00;0.00;;;;;;;;;;5048293;28;20053;-66
2022/07/18 04:24:24;;;;;;;0.00;0.00;;;;;;;;;;5050147;28;20052;-64
2022/07/18 04:26:50;;;;;;;0.00;0.00;;;;;;;;;;5046685;28;20164;-64
2022/07/18 04:29:15;;;;;;;0.00;0.00;;;;;;;;;;5041856;28;20021;-63
2022/07/18 04:31:41;;;;;;;0.00;0.00;;;;;;;;;;5041624;28;20053;-65
2022/07/18 04:34:06;;;;;;;0.00;0.00;;;;;;;;;;5032027;28;20030;-65
2022/07/18 04:36:31;;;;;;;0.00;0.00;;;;;;;;;;5038272;28;20128;-63
2022/07/18 04:38:56;;;;;;;0.00;0.00;;;;;;;;;;5015078;28;20032;-63
2022/07/18 04:41:24;;;;;;;0.00;0.00;;;;;;;;;;5042377;28;20119;-62
2022/07/18 04:43:50;;;;;;;0.00;0.00;;;;;;;;;;5037860;28;20032;-64
2022/07/18 04:46:15;;;;;;;0.80;0.80;;;;;;;;;;5039450;28;20017;-63
2022/07/18 04:48:40;;;;;;;0.00;0.00;;;;;;;;;;5037575;28;20036;-64
2022/07/18 04:51:06;;;;;;;0.00;0.00;;;;;;;;;;5010904;28;20029;-66
2022/07/18 04:53:31;;;;;;;0.00;0.00;;;;;;;;;;5036289;28;20091;-65
2022/07/18 04:55:56;;;;;;;0.00;0.00;;;;;;;;;;5043896;28;20028;-65
2022/07/18 04:58:21;;;;;;;0.00;0.00;;;;;;;;;;5044622;28;20465;-63
2022/07/18 05:00:46;;;;;;;0.00;0.00;;;;;;;;;;5036633;28;20022;-63
2022/07/18 05:03:13;;;;;;;0.00;0.00;;;;;;;;;;5045441;28;20343;-64
2022/07/18 05:05:38;;;;;;;0.00;0.00;;;;;;;;;;5047042;28;20489;-64
2022/07/18 05:08:04;;;;;;;0.00;0.00;;;;;;;;;;5034681;28;20041;-64
2022/07/18 05:10:29;;;;;;;0.00;0.00;;;;;;;;;;5032009;28;20028;-64
2022/07/18 05:12:55;;;;;;;0.00;0.00;;;;;;;;;;5044560;28;20017;-63
2022/07/18 05:15:22;;;;;;;0.00;0.00;;;;;;;;;;5046056;28;20430;-63
2022/07/18 05:17:47;;;;;;;11.77;10.70;;;;;;;;;;5049161;28;20048;-64
2022/07/18 05:20:17;;;;;;;0.00;0.00;;;;;;;;;;5049341;28;20017;-64
2022/07/18 05:22:42;;;;;;;0.00;0.00;;;;;;;;;;5045651;28;20075;-64
2022/07/18 05:25:08;;;;;;;0.00;0.00;;;;;;;;;;5038691;28;20470;-64
2022/07/18 05:27:34;;;;;;;0.00;0.00;;;;;;;;;;5035654;28;20064;-64
2022/07/18 05:29:59;;;;;;;3.08;1.08;;;;;;;;;;5032342;28;20045;-64
2022/07/18 05:32:25;;;;;;;0.00;0.00;;;;;;;;;;5031124;28;20092;-64
2022/07/18 05:34:50;;;;;;;0.00;0.00;;;;;;;;;;5037318;28;20124;-65
2022/07/18 05:37:15;;;;;;;0.00;0.00;;;;;;;;;;5046218;28;20049;-65
2022/07/18 05:39:41;;;;;;;0.00;0.00;;;;;;;;;;5037515;28;20382;-65
2022/07/18 05:42:06;;;;;;;0.10;0.10;;;;;;;;;;5039070;28;20036;-65
2022/07/18 05:44:31;;;;;;;0.00;0.00;;;;;;;;;;5039741;28;20282;-65
2022/07/18 05:46:57;;;;;;;0.00;0.00;;;;;;;;;;5045694;28;20029;-66
2022/07/18 05:49:22;;;;;;;0.00;0.00;;;;;;;;;;5048050;28;20052;-66
2022/07/18 05:51:47;;;;;;;0.00;0.00;;;;;;;;;;5048565;28;20059;-64
2022/07/18 05:54:18;;;;;;;0.00;0.00;;;;;;;;;;5042044;28;20025;-65
2022/07/18 05:56:43;;;;;;;0.00;0.00;;;;;;;;;;5042705;28;20036;-65
2022/07/18 05:59:08;;;;;;;0.00;0.00;;;;;;;;;;5045830;28;20445;-66
2022/07/18 06:01:33;;;;;;;0.75;0.75;;;;;;;;;;5042173;28;20056;-66
2022/07/18 06:03:59;;;;;;;0.00;0.00;;;;;;;;;;5046079;28;20140;-66
2022/07/18 06:06:24;;;;;;;0.00;0.00;;;;;;;;;;5048936;28;20256;-65
2022/07/18 06:08:50;;;;;;;0.00;0.00;;;;;;;;;;5032454;28;20190;-65
2022/07/18 06:11:15;;;;;;;0.00;0.00;;;;;;;;;;5022248;28;20030;-65
2022/07/18 06:13:41;;;;;;;0.20;0.20;;;;;;;;;;5016308;28;20044;-65
2022/07/18 06:16:07;;;;;;;0.00;0.00;;;;;;;;;;5017697;28;20962;-64
2022/07/18 06:18:34;;;;;;;0.00;0.00;;;;;;;;;;5015368;28;20025;-65
2022/07/18 06:20:59;;;;;;;2.35;2.28;;;;;;;;;;5014251;28;20062;-66
2022/07/18 06:23:25;;;;;;;0.00;0.00;;;;;;;;;;5010544;28;20081;-66
2022/07/18 06:25:50;;;;;;;0.00;0.00;;;;;;;;;;5015147;28;20467;-65
2022/07/18 06:28:15;;;;;;;0.00;0.00;;;;;;;;;;5007533;28;20459;-66
2022/07/18 06:30:40;;;;;;;0.00;0.00;;;;;;;;;;5013910;28;20021;-66
2022/07/18 06:33:07;;;;;;;0.00;0.00;;;;;;;;;;5012180;28;20101;-66
2022/07/18 06:35:33;;;;;;;0.00;0.00;;;;;;;;;;5013389;28;20025;-66
2022/07/18 06:37:58;;;;;;;0.00;0.00;;;;;;;;;;5014187;28;20041;-65
2022/07/18 06:40:25;;;;;;;0.00;0.00;;;;;;;;;;5012259;28;20033;-66
2022/07/18 06:42:50;;;;;;;0.00;0.00;;;;;;;;;;5012738;28;20354;-66
2022/07/18 06:48:35;;;;;;;0.00;0.00;;;;;;;;;;4960369;28;20027;-66
2022/07/18 06:51:05;;;;;;;0.00;0.00;;;;;;;;;;5014584;28;20504;-67
2022/07/18 06:53:30;;;;;;;0.00;0.00;;;;;;;;;;5012221;28;20033;-68
2022/07/18 06:55:56;;;;;;;0.90;0.38;;;;;;;;;;5013789;28;20025;-66
2022/07/18 06:58:21;;;;;;;0.00;0.00;;;;;;;;;;5024869;28;20458;-67
2022/07/18 07:00:46;;;;;;;0.00;0.00;;;;;;;;;;5013645;28;20029;-67
2022/07/18 07:03:12;;;;;;;0.10;0.10;;;;;;;;;;5020352;28;20021;-67
2022/07/18 07:05:38;;;;;;;0.00;0.00;;;;;;;;;;5015985;28;20267;-67
2022/07/18 07:08:03;;;;;;;0.00;0.00;;;;;;;;;;5018533;28;20303;-68
2022/07/18 07:10:31;;;;;;;0.00;0.00;;;;;;;;;;5029004;28;20101;-67
2022/07/18 07:12:56;;;;;;;0.05;0.05;;;;;;;;;;5029307;28;20466;-68
2022/07/18 07:15:22;;;;;;;0.00;0.00;;;;;;;;;;5028217;28;20080;-70
2022/07/18 07:17:48;;;;;;;0.00;0.00;;;;;;;;;;5029227;28;20360;-70
2022/07/18 07:20:13;;;;;;;0.00;0.00;;;;;;;;;;5022975;28;20116;-70
2022/07/18 07:22:49;;;;;;;0.00;0.00;;;;;;;;;;5029558;28;20112;-66
2022/07/18 07:25:15;;;;;;;0.00;0.00;;;;;;;;;;5011634;28;20025;-67
2022/07/18 07:27:41;;;;;;;0.25;0.25;;;;;;;;;;5028568;28;20048;-68
2022/07/18 07:30:07;;;;;;;0.00;0.00;;;;;;;;;;5029340;28;20024;-69
2022/07/18 07:32:36;;;;;;;0.00;0.00;;;;;;;;;;5031495;28;20065;-70
2022/07/18 07:35:02;;;;;;;0.00;0.00;;;;;;;;;;5029213;28;20072;-69
2022/07/18 07:37:27;;;;;;;0.28;0.28;;;;;;;;;;5027290;28;20100;-69
2022/07/18 07:39:52;;;;;;;0.00;0.00;;;;;;;;;;5025263;28;20411;-66
2022/07/18 07:42:18;;;;;;;0.00;0.00;;;;;;;;;;5029429;28;20708;-66
2022/07/18 07:44:43;;;;;;;0.00;0.00;;;;;;;;;;5027620;28;20800;-66
2022/07/18 07:47:08;;;;;;;0.00;0.00;;;;;;;;;;5029726;28;20017;-67
2022/07/18 07:49:34;;;;;;;0.00;0.00;;;;;;;;;;5027518;28;20478;-67
2022/07/18 07:52:00;;;;;;;0.00;0.00;;;;;;;;;;5028712;28;20363;-67
2022/07/18 07:54:25;;;;;;;0.00;0.00;;;;;;;;;;5028905;28;20100;-67
2022/07/18 07:56:50;;;;;;;1.03;0.63;;;;;;;;;;5029516;28;20033;-66
2022/07/18 07:59:15;;;;;;;0.00;0.00;;;;;;;;;;5027545;28;20268;-66
2022/07/18 08:01:40;;;;;;;0.00;0.00;;;;;;;;;;5028265;28;20287;-65
2022/07/18 08:04:06;;;;;;;0.00;0.00;;;;;;;;;;5029156;28;20356;-63
2022/07/18 08:06:31;;;;;;;0.00;0.00;;;;;;;;;;5028540;28;20260;-66
2022/07/18 08:08:56;;;;;;;0.00;0.00;;;;;;;;;;5029245;28;20284;-65
2022/07/18 08:11:22;;;;;;;0.00;0.00;;;;;;;;;;5029966;28;20264;-65
2022/07/18 08:13:47;;;;;;;0.00;0.00;;;;;;;;;;5032737;28;20025;-65
2022/07/18 08:16:12;;;;;;;0.00;0.00;;;;;;;;;;5032156;28;20638;-67
2022/07/18 08:18:37;;;;;;;0.00;0.00;;;;;;;;;;5030496;28;20621;-67
2022/07/18 08:21:03;;;;;;;0.00;0.00;;;;;;;;;;5030172;28;20084;-67
2022/07/18 08:23:28;;;;;;;0.00;0.00;;;;;;;;;;5030237;28;20469;-66
2022/07/18 08:25:53;;;;;;;0.00;0.00;;;;;;;;;;5030831;28;20021;-66
2022/07/18 08:28:18;;;;;;;0.00;0.00;;;;;;;;;;5032419;28;20779;-66
2022/07/18 08:30:44;;;;;;;0.00;0.00;;;;;;;;;;5030748;28;20034;-65
2022/07/18 08:33:09;;;;;;;0.00;0.00;;;;;;;;;;5030953;28;20279;-65
2022/07/18 08:35:34;;;;;;;0.00;0.00;;;;;;;;;;5030886;28;20296;-68
2022/07/18 08:38:00;;;;;;;5.40;3.88;;;;;;;;;;5032916;28;20028;-65
2022/07/18 08:40:26;;;;;;;0.00;0.00;;;;;;;;;;5006728;28;20025;-66
2022/07/18 08:42:52;;;;;;;0.00;0.00;;;;;;;;;;5032695;28;20024;-67
2022/07/18 08:45:20;;;;;;;0.00;0.00;;;;;;;;;;5031646;28;20029;-67
2022/07/18 08:47:45;;;;;;;0.00;0.00;;;;;;;;;;5030207;28;20463;-67
2022/07/18 08:50:10;;;;;;;0.00;0.00;;;;;;;;;;5030538;28;20036;-68
2022/07/18 08:52:37;;;;;;;0.00;0.00;;;;;;;;;;5031125;28;20260;-67
2022/07/18 08:55:03;;;;;;;0.00;0.00;;;;;;;;;;5032983;28;20389;-68
2022/07/18 08:57:29;;;;;;;0.00;0.00;;;;;;;;;;5012337;28;20017;-67
2022/07/18 08:59:54;;;;;;;0.00;0.00;;;;;;;;;;5032199;28;20389;-66
2022/07/18 09:02:23;;;;;;;0.00;0.00;;;;;;;;;;5030756;28;20025;-67
2022/07/18 09:04:48;;;;;;;0.00;0.00;;;;;;;;;;5030053;28;20760;-67
2022/07/18 09:07:22;;;;;;;0.00;0.00;;;;;;;;;;5030889;28;20029;-66
2022/07/18 09:09:52;;;;;;;0.00;0.00;;;;;;;;;;5030841;28;20316;-65
2022/07/18 09:12:17;;;;;;;0.00;0.00;;;;;;;;;;5030003;28;20375;-66
2022/07/18 09:14:44;;;;;;;0.00;0.00;;;;;;;;;;5025557;28;20128;-66
2022/07/18 09:17:09;;;;;;;0.00;0.00;;;;;;;;;;5030315;28;20126;-66
2022/07/18 09:19:35;;;;;;;0.00;0.00;;;;;;;;;;5024953;28;20463;-67
2022/07/18 09:22:12;;;;;;;0.00;0.00;;;;;;;;;;5029734;28;20312;-65
2022/07/18 09:24:58;;;;;;;0.00;0.00;;;;;;;;;;5029939;28;20060;-65
2022/07/18 09:27:24;;;;;;;0.00;0.00;;;;;;;;;;5028528;28;20064;-65
2022/07/18 09:30:08;;;;;;;0.00;0.00;;;;;;;;;;5030641;28;20033;-66
2022/07/18 09:32:34;;;;;;;0.00;0.00;;;;;;;;;;5026539;28;20060;-65
2022/07/18 09:35:09;;;;;;;0.00;0.00;;;;;;;;;;5028108;28;20476;-68
2022/07/18 09:37:35;;;;;;;0.00;0.00;;;;;;;;;;5029774;28;20025;-68
2022/07/18 09:40:20;;;;;;;0.00;0.00;;;;;;;;;;5031587;28;20083;-67
2022/07/18 09:42:50;;;;;;;0.00;0.00;;;;;;;;;;5029478;28;20056;-65
2022/07/18 09:45:15;;;;;;;0.00;0.00;;;;;;;;;;5029406;28;20544;-66
2022/07/18 09:47:51;;;;;;;0.57;0.57;;;;;;;;;;5029635;28;20029;-66
2022/07/18 09:50:25;;;;;;;0.00;0.00;;;;;;;;;;5029857;28;20017;-66
2022/07/18 09:53:01;;;;;;;0.00;0.00;;;;;;;;;;5031251;28;20022;-66
2022/07/18 09:55:26;;;;;;;0.00;0.00;;;;;;;;;;5028669;28;20418;-65
2022/07/18 09:58:05;;;;;;;0.00;0.00;;;;;;;;;;5031715;28;20025;-65
2022/07/18 10:00:31;;;;;;;0.00;0.00;;;;;;;;;;5029007;28;20025;-69
2022/07/18 10:02:58;;;;;;;4.45;2.55;;;;;;;;;;5031189;28;20022;-68
2022/07/18 10:05:24;;;;;;;0.00;0.00;;;;;;;;;;5028366;28;20392;-67
2022/07/18 10:07:49;;;;;;;0.00;0.00;;;;;;;;;;5026793;28;20046;-66
2022/07/18 10:10:15;;;;;;;1.10;0.30;;;;;;;;;;5027966;28;20029;-65
2022/07/18 10:12:41;;;;;;;0.00;0.00;;;;;;;;;;5029935;28;20297;-65
2022/07/18 10:15:06;;;;;;;0.00;0.00;;;;;;;;;;5030035;28;20021;-65
2022/07/18 10:17:32;;;;;;;0.30;0.10;;;;;;;;;;5030431;28;20022;-63
2022/07/18 10:20:02;;;;;;;0.00;0.00;;;;;;;;;;5034546;28;20029;-67
2022/07/18 10:22:27;;;;;;;0.08;0.08;;;;;;;;;;5031939;28;20466;-67
2022/07/18 10:24:53;;;;;;;0.00;0.00;;;;;;;;;;5031386;28;20017;-64
2022/07/18 10:27:19;;;;;;;0.00;0.00;;;;;;;;;;5032782;28;20033;-66
2022/07/18 10:30:03;;;;;;;0.00;0.00;;;;;;;;;;5032592;28;20083;-66
2022/07/18 10:32:33;;;;;;;0.00;0.00;;;;;;;;;;5029557;28;20033;-66
2022/07/18 10:34:58;;;;;;;0.00;0.00;;;;;;;;;;5027942;28;20032;-65
2022/07/18 10:37:24;;;;;;;0.00;0.00;;;;;;;;;;5030417;28;20036;-65
2022/07/18 10:39:50;;;;;;;0.05;0.05;;;;;;;;;;5029376;28;20348;-65
2022/07/18 10:42:17;;;;;;;0.00;0.00;;;;;;;;;;5031401;28;20036;-65
2022/07/18 10:44:42;;;;;;;0.90;0.90;;;;;;;;;;5027366;28;20075;-64
2022/07/18 10:47:17;;;;;;;0.00;0.00;;;;;;;;;;5030430;28;20024;-65
2022/07/18 10:49:45;;;;;;;0.00;0.00;;;;;;;;;;5028064;28;20022;-66
2022/07/18 10:52:26;;;;;;;0.00;0.00;;;;;;;;;;5023479;28;20386;-66
2022/07/18 10:55:18;;;;;;;0.65;0.30;;;;;;;;;;5033444;28;20033;-65
2022/07/18 10:57:49;;;;;;;0.82;0.82;;;;;;;;;;5020146;28;20048;-66
2022/07/18 11:00:16;;;;;;;0.00;0.00;;;;;;;;;;5031489;28;20489;-63
2022/07/18 11:02:46;;;;;;;1.35;0.93;;;;;;;;;;5031527;28;20644;-66
2022/07/18 11:05:32;;;;;;;0.35;0.35;;;;;;;;;;5031944;28;20446;-66
2022/07/18 11:07:57;;;;;;;0.00;0.00;;;;;;;;;;5032325;28;20494;-65
2022/07/18 11:10:45;;;;;;;0.00;0.00;;;;;;;;;;5024887;28;20030;-65
2022/07/18 11:16:07;;;;;;;0.00;0.00;;;;;;;;;;5026264;28;20030;-64
2022/07/18 11:18:38;;;;;;;0.00;0.00;;;;;;;;;;5025819;28;20143;-64
2022/07/18 11:21:15;;;;;;;0.00;0.00;;;;;;;;;;5027418;28;20501;-65
2022/07/18 11:23:46;;;;;;;0.20;0.20;;;;;;;;;;5027194;28;20028;-64
2022/07/18 11:26:15;;;;;;;0.20;0.20;;;;;;;;;;5026845;28;20733;-64
2022/07/18 11:28:40;;;;;;;;;;;;;;;;;;5033364;28;20351;-65
2022/07/18 11:31:06;;;;;;;0.00;0.00;;;;;;;;;;5033285;28;20286;-64
2022/07/18 11:33:33;;;;;;;0.00;0.00;;;;;;;;;;5029452;28;20025;-65
2022/07/18 11:36:02;;;;;;;0.00;0.00;;;;;;;;;;5028470;28;20021;-64
2022/07/18 11:38:27;;;;;;;0.00;0.00;;;;;;;;;;5028371;28;20123;-64
2022/07/18 11:40:52;;;;;;;0.00;0.00;;;;;;;;;;5028590;28;20078;-65
2022/07/18 11:43:21;;;;;;;0.00;0.00;;;;;;;;;;5032284;28;20021;-65
2022/07/18 11:45:46;;;;;;;;;;;;;;;;;;5034282;28;20047;-65
2022/07/18 11:48:20;;;;;;;0.00;0.00;;;;;;;;;;5033361;28;19912;-65
2022/07/18 11:50:45;;;;;;;0.45;0.45;;;;;;;;;;5034228;28;20025;-65
2022/07/18 11:53:11;;;;;;;0.30;0.30;;;;;;;;;;5037148;28;20048;-65
2022/07/18 11:55:37;;;;;;;1.92;1.00;;;;;;;;;;5035465;28;20033;-65
2022/07/18 11:58:09;;;;;;;0.00;0.00;;;;;;;;;;5021056;28;20021;-63
2022/07/18 12:00:35;;;;;;;0.52;0.52;;;;;;;;;;5033994;28;20037;-65
2022/07/18 12:03:20;;;;;;;0.00;0.00;;;;;;;;;;5036915;28;20018;-65
2022/07/18 12:05:48;;;;;;;0.00;0.00;;;;;;;;;;5036389;28;20059;-65
2022/07/18 12:08:32;;;;;;;0.00;0.00;;;;;;;;;;5032606;28;20037;-65
2022/07/18 12:11:15;;;;;;;0.57;0.57;;;;;;;;;;5035571;28;20603;-65
2022/07/18 12:14:00;;;;;;;0.00;0.00;;;;;;;;;;5034585;28;20084;-65
2022/07/18 12:16:25;;;;;;;0.00;0.00;;;;;;;;;;5032089;28;20021;-65
2022/07/18 12:18:51;;;;;;;0.05;0.05;;;;;;;;;;5032874;28;20044;-63
2022/07/18 12:21:16;;;;;;;0.00;0.00;;;;;;;;;;5034677;28;20025;-64
2022/07/18 12:23:41;;;;;;;0.00;0.00;;;;;;;;;;5034530;28;20141;-65
2022/07/18 12:26:06;;;;;;;0.77;0.77;;;;;;;;;;5032682;28;20048;-64
2022/07/18 12:28:32;;;;;;;0.00;0.00;;;;;;;;;;5029898;28;20290;-65
2022/07/18 12:30:57;;;;;;;0.30;0.30;;;;;;;;;;5031616;28;20029;-65
2022/07/18 12:33:22;;;;;;;0.35;0.25;;;;;;;;;;5022624;28;20034;-65
2022/07/18 12:35:57;;;;;;;0.00;0.00;;;;;;;;;;5032549;28;20036;-64
2022/07/18 12:38:23;;;;;;;0.00;0.00;;;;;;;;;;5034953;28;20545;-65
2022/07/18 12:40:55;;;;;;;0.00;0.00;;;;;;;;;;5031722;28;20116;-64
2022/07/18 12:43:31;;;;;;;0.00;0.00;;;;;;;;;;5018259;28;20021;-65
2022/07/18 12:45:57;;;;;;;0.00;0.00;;;;;;;;;;5030823;28;20547;-65
2022/07/18 12:48:22;;;;;;;0.00;0.00;;;;;;;;;;5032308;28;20018;-65
2022/07/18 12:51:00;;;;;;;0.00;0.00;;;;;;;;;;5035202;28;20465;-65
2022/07/18 12:53:26;;;;;;;0.00;0.00;;;;;;;;;;5035184;28;20104;-65
2022/07/18 12:55:52;;;;;;;0.00;0.00;;;;;;;;;;5033651;28;20025;-65
2022/07/18 12:58:17;;;;;;;0.00;0.00;;;;;;;;;;5037509;28;20075;-65
2022/07/18 13:00:44;;;;;;;0.00;0.00;;;;;;;;;;5032870;28;20076;-64
2022/07/18 13:03:09;;;;;;;0.00;0.00;;;;;;;;;;5033845;28;20458;-64
2022/07/18 13:05:34;;;;;;;0.00;0.00;;;;;;;;;;5027635;28;20025;-64
2022/07/18 13:07:59;;;;;;;0.00;0.00;;;;;;;;;;5010730;28;20047;-64
2022/07/18 13:10:25;;;;;;;2.08;1.77;;;;;;;;;;5033636;28;20302;-64
2022/07/18 13:12:50;;;;;;;0.00;0.00;;;;;;;;;;5032528;28;20021;-64
2022/07/18 13:15:15;;;;;;;0.03;0.03;;;;;;;;;;5035210;28;20021;-64
2022/07/18 13:17:41;;;;;;;0.25;0.25;;;;;;;;;;5037119;28;20033;-65
2022/07/18 13:20:06;;;;;;;0.15;0.15;;;;;;;;;;5035255;28;20030;-66
2022/07/18 13:22:37;;;;;;;0.00;0.00;;;;;;;;;;5027844;28;20545;-64
2022/07/18 13:25:03;;;;;;;0.00;0.00;;;;;;;;;;5032253;28;20029;-65
2022/07/18 13:27:28;;;;;;;0.00;0.00;;;;;;;;;;5036036;28;20136;-65
2022/07/18 13:29:54;;;;;;;0.03;0.03;;;;;;;;;;5030037;28;20029;-65
2022/07/18 13:32:19;;;;;;;0.00;0.00;;;;;;;;;;5031919;28;20025;-65
2022/07/18 13:34:44;;;;;;;0.00;0.00;;;;;;;;;;5027254;28;20037;-65
2022/07/18 13:37:10;;;;;;;0.00;0.00;;;;;;;;;;5032312;28;20032;-67
2022/07/18 13:39:35;;;;;;;0.00;0.00;;;;;;;;;;5030972;28;20280;-65
2022/07/18 13:42:02;;;;;;;0.00;0.00;;;;;;;;;;5036117;28;20280;-64
2022/07/18 13:44:27;;;;;;;0.10;0.10;;;;;;;;;;5030124;28;20268;-69
2022/07/18 13:46:53;;;;;;;0.00;0.00;;;;;;;;;;5029190;28;20025;-64
2022/07/18 13:49:18;;;;;;;0.00;0.00;;;;;;;;;;5032011;28;20017;-64
2022/07/18 13:51:43;;;;;;;0.00;0.00;;;;;;;;;;5034402;28;20264;-64
2022/07/18 13:54:08;;;;;;;0.00;0.00;;;;;;;;;;5034065;28;20720;-64
2022/07/18 13:56:34;;;;;;;0.00;0.00;;;;;;;;;;5034625;28;20025;-64
2022/07/18 13:58:59;;;;;;;0.00;0.00;;;;;;;;;;5034185;28;20450;-64
2022/07/18 14:01:24;;;;;;;1.55;1.55;;;;;;;;;;5033879;28;20362;-64
2022/07/18 14:03:50;;;;;;;0.00;0.00;;;;;;;;;;5028086;28;20132;-64
2022/07/18 14:06:16;;;;;;;0.00;0.00;;;;;;;;;;5034970;28;20105;-65
2022/07/18 14:08:41;;;;;;;0.00;0.00;;;;;;;;;;5030756;28;20453;-64
2022/07/18 14:11:07;;;;;;;0.00;0.00;;;;;;;;;;5031466;28;20046;-64
2022/07/18 14:13:32;;;;;;;0.00;0.00;;;;;;;;;;5031543;28;20401;-65
2022/07/18 14:15:58;;;;;;;0.00;0.00;;;;;;;;;;5031624;28;20104;-64
2022/07/18 14:18:23;;;;;;;0.00;0.00;;;;;;;;;;5028821;28;20021;-64
2022/07/18 14:20:48;;;;;;;1.23;1.13;;;;;;;;;;5028443;28;20028;-63
2022/07/18 14:23:13;;;;;;;1.92;0.98;;;;;;;;;;5031243;28;20346;-63
2022/07/18 14:25:39;;;;;;;0.00;0.00;;;;;;;;;;5025610;28;20853;-65
2022/07/18 14:28:04;;;;;;;0.00;0.00;;;;;;;;;;5030358;28;20033;-64
2022/07/18 14:30:29;;;;;;;0.00;0.00;;;;;;;;;;5022915;28;20439;-65
2022/07/18 14:32:55;;;;;;;0.00;0.00;;;;;;;;;;5027018;28;20120;-64
2022/07/18 14:35:20;;;;;;;0.10;0.10;;;;;;;;;;5028231;28;20029;-64
2022/07/18 14:37:45;;;;;;;0.00;0.00;;;;;;;;;;5026628;28;20023;-63
2022/07/18 14:40:10;;;;;;;0.00;0.00;;;;;;;;;;5027722;28;20264;-64
2022/07/18 14:42:36;;;;;;;0.00;0.00;;;;;;;;;;5027824;28;20033;-64
2022/07/18 14:45:02;;;;;;;0.38;0.38;;;;;;;;;;5028113;28;20454;-66
2022/07/18 14:47:28;;;;;;;0.00;0.00;;;;;;;;;;5028253;28;20021;-63
2022/07/18 14:49:53;;;;;;;0.65;0.65;;;;;;;;;;5033948;28;20052;-64